createdAt,value
2018-09-23T00:04:46.293Z,101147.00
2018-09-23T00:09:39.581Z,101134.00
2018-09-23T00:14:32.844Z,101138.00
2018-09-23T00:19:26.120Z,101133.00
2018-09-23T00:24:19.421Z,101109.00
2018-09-23T00:29:16.552Z,101090.00
2018-09-23T00:34:09.868Z,101082.00
2018-09-23T00:39:03.685Z,101086.00
2018-09-23T00:43:56.940Z,101081.00
2018-09-23T00:48:50.261Z,101071.00
2018-09-23T00:53:43.685Z,101053.00
2018-09-23T00:58:37.010Z,101019.00
2018-09-23T01:03:30.289Z,101018.00
2018-09-23T01:08:23.514Z,101018.00
2018-09-23T01:13:16.762Z,101022.00
2018-09-23T01:18:10.012Z,100995.00
2018-09-23T01:23:03.252Z,100983.00
2018-09-23T01:27:56.504Z,100984.00
2018-09-23T01:32:49.813Z,100965.00
2018-09-23T01:37:43.057Z,100973.00
2018-09-23T01:42:36.266Z,100974.00
2018-09-23T01:47:29.546Z,100989.00
2018-09-23T01:52:22.767Z,100922.00
2018-09-23T01:57:16.039Z,100929.00
2018-09-23T02:02:09.441Z,100923.00
2018-09-23T02:07:02.662Z,100914.00
2018-09-23T02:11:55.958Z,100894.00
2018-09-23T02:16:49.195Z,100895.00
2018-09-23T02:21:42.443Z,100889.00
2018-09-23T02:26:35.724Z,100885.00
2018-09-23T02:31:29.007Z,100886.00
2018-09-23T02:36:22.291Z,100890.00
2018-09-23T02:41:15.521Z,100882.00
2018-09-23T02:46:08.818Z,100857.00
2018-09-23T02:51:02.104Z,100852.00
2018-09-23T02:55:55.380Z,100854.00
2018-09-23T03:00:48.679Z,100832.00
2018-09-23T03:05:41.992Z,100809.00
2018-09-23T03:10:35.298Z,100795.00
2018-09-23T03:15:29.343Z,100800.00
2018-09-23T03:20:22.556Z,100783.00
2018-09-23T03:25:15.920Z,100766.00
2018-09-23T03:30:09.259Z,100764.00
2018-09-23T03:35:02.599Z,100765.00
2018-09-23T03:39:55.879Z,100761.00
2018-09-23T03:44:49.175Z,100757.00
2018-09-23T03:49:42.544Z,100753.00
2018-09-23T03:54:35.750Z,100756.00
2018-09-23T03:59:29.043Z,100755.00
2018-09-23T04:04:22.320Z,100738.00
2018-09-23T04:09:15.599Z,100704.00
2018-09-23T04:14:08.881Z,100698.00
2018-09-23T04:19:02.110Z,100700.00
2018-09-23T04:23:55.361Z,100683.00
2018-09-23T04:28:48.619Z,100691.00
2018-09-23T04:33:41.859Z,100686.00
2018-09-23T04:38:35.080Z,100688.00
2018-09-23T04:43:28.345Z,100664.00
2018-09-23T04:48:21.563Z,100659.00
2018-09-23T04:53:14.848Z,100657.00
2018-09-23T04:58:08.097Z,100650.00
2018-09-23T05:03:01.339Z,100651.00
2018-09-23T05:07:54.604Z,100650.00
2018-09-23T05:12:47.925Z,100644.00
2018-09-23T05:17:41.289Z,100635.00
2018-09-23T05:22:34.570Z,100637.00
2018-09-23T05:27:28.751Z,100635.00
2018-09-23T05:32:22.008Z,100627.00
2018-09-23T05:37:15.263Z,100631.00
2018-09-23T05:42:08.542Z,100619.00
2018-09-23T05:47:01.794Z,100605.00
2018-09-23T05:51:55.061Z,100609.00
2018-09-23T05:56:48.309Z,100610.00
2018-09-23T06:01:41.568Z,100602.00
2018-09-23T06:06:34.865Z,100589.00
2018-09-23T06:11:28.126Z,100580.00
2018-09-23T06:16:21.387Z,100578.00
2018-09-23T06:21:14.713Z,100576.00
2018-09-23T06:26:08.041Z,100579.00
2018-09-23T06:31:01.373Z,100581.00
2018-09-23T06:35:54.618Z,100587.00
2018-09-23T06:40:47.910Z,100560.00
2018-09-23T06:45:41.171Z,100556.00
2018-09-23T06:50:34.453Z,100564.00
2018-09-23T06:55:27.757Z,100559.00
2018-09-23T07:00:21.027Z,100554.00
2018-09-23T07:05:14.286Z,100548.00
2018-09-23T07:10:07.582Z,100542.00
2018-09-23T07:15:00.903Z,100542.00
2018-09-23T07:19:54.284Z,100537.00
2018-09-23T07:24:47.555Z,100543.00
2018-09-23T07:29:40.801Z,100541.00
2018-09-23T07:34:34.109Z,100540.00
2018-09-23T07:39:27.415Z,100524.00
2018-09-23T07:44:20.661Z,100523.00
2018-09-23T07:49:13.910Z,100536.00
2018-09-23T07:54:07.166Z,100538.00
2018-09-23T07:59:00.405Z,100535.00
2018-09-23T08:03:53.619Z,100526.00
2018-09-23T08:08:46.866Z,100525.00
2018-09-23T08:13:40.327Z,100524.00
2018-09-23T08:18:33.558Z,100527.00
2018-09-23T08:23:27.839Z,100521.00
2018-09-23T08:28:21.067Z,100500.00
2018-09-23T08:33:14.355Z,100497.00
2018-09-23T08:38:07.826Z,100497.00
2018-09-23T08:43:01.229Z,100490.00
2018-09-23T08:47:54.505Z,100500.00
2018-09-23T08:52:47.792Z,100485.00
2018-09-23T08:57:41.238Z,100466.00
2018-09-23T09:02:34.552Z,100461.00
2018-09-23T09:07:27.814Z,100454.00
2018-09-23T09:12:21.109Z,100446.00
2018-09-23T09:17:14.355Z,100428.00
2018-09-23T09:22:07.652Z,100422.00
2018-09-23T09:27:00.946Z,100402.00
2018-09-23T09:31:54.309Z,100403.00
2018-09-23T09:36:47.606Z,100390.00
2018-09-23T09:41:40.879Z,100393.00
2018-09-23T09:46:34.233Z,100379.00
2018-09-23T09:51:27.473Z,100390.00
2018-09-23T09:56:20.751Z,100377.00
2018-09-23T10:01:14.075Z,100360.00
2018-09-23T10:06:08.101Z,100349.00
2018-09-23T10:11:01.371Z,100323.00
2018-09-23T10:15:54.671Z,100299.00
2018-09-23T10:20:48.203Z,100283.00
2018-09-23T10:25:41.659Z,100268.00
2018-09-23T10:30:35.019Z,100255.00
2018-09-23T10:35:28.531Z,100248.00
2018-09-23T10:40:21.906Z,100226.00
2018-09-23T10:45:15.399Z,100224.00
2018-09-23T10:50:08.685Z,100207.00
2018-09-23T10:55:02.252Z,100200.00
2018-09-23T10:59:55.535Z,100221.00
2018-09-23T11:04:48.816Z,100243.00
2018-09-23T11:09:42.141Z,100202.00
2018-09-23T11:14:35.377Z,100231.00
2018-09-23T11:19:28.623Z,100226.00
2018-09-23T11:24:21.903Z,100197.00
2018-09-23T11:29:15.167Z,100157.00
2018-09-23T11:34:08.538Z,100185.00
2018-09-23T11:39:01.991Z,100155.00
2018-09-23T11:43:55.335Z,100131.00
2018-09-23T11:48:48.617Z,100087.00
2018-09-23T11:53:41.931Z,100059.00
2018-09-23T11:58:35.155Z,100051.00
2018-09-23T12:03:28.427Z,100141.00
2018-09-23T12:08:21.637Z,100181.00
2018-09-23T12:13:14.884Z,100093.00
2018-09-23T12:18:08.169Z,100060.00
2018-09-23T12:23:01.497Z,100067.00
2018-09-23T12:27:54.737Z,100130.00
2018-09-23T12:32:48.074Z,100102.00
2018-09-23T12:37:41.361Z,100155.00
2018-09-23T12:42:34.595Z,100157.00
2018-09-23T12:47:27.806Z,100214.00
2018-09-23T12:52:21.080Z,100212.00
2018-09-23T12:57:14.332Z,100242.00
2018-09-23T13:02:07.782Z,100275.00
2018-09-23T13:07:01.958Z,100221.00
2018-09-23T13:11:55.213Z,100244.00
2018-09-23T13:16:48.489Z,100247.00
2018-09-23T13:21:41.723Z,100282.00
2018-09-23T13:26:34.965Z,100306.00
2018-09-23T13:31:28.222Z,100332.00
2018-09-23T13:36:21.522Z,100358.00
2018-09-23T13:41:14.808Z,100271.00
2018-09-23T13:46:08.162Z,100294.00
2018-09-23T13:51:01.618Z,100275.00
2018-09-23T13:55:54.928Z,100315.00
2018-09-23T14:00:48.351Z,100317.00
2018-09-23T14:05:41.619Z,100335.00
2018-09-23T14:10:34.944Z,100352.00
2018-09-23T14:15:28.219Z,100344.00
2018-09-23T14:20:21.433Z,100367.00
2018-09-23T14:25:14.723Z,100377.00
2018-09-23T14:30:08.144Z,100388.00
2018-09-23T14:35:01.423Z,100408.00
2018-09-23T14:39:54.714Z,100434.00
2018-09-23T14:44:48.082Z,100454.00
2018-09-23T14:49:41.356Z,100457.00
2018-09-23T14:54:34.794Z,100498.00
2018-09-23T14:59:28.005Z,100502.00
2018-09-23T15:04:21.281Z,100514.00
2018-09-23T15:09:14.535Z,100522.00
2018-09-23T15:14:07.877Z,100544.00
2018-09-23T15:19:01.162Z,100562.00
2018-09-23T15:23:54.445Z,100561.00
2018-09-23T15:28:47.757Z,100572.00
2018-09-23T15:33:41.032Z,100590.00
2018-09-23T15:38:34.266Z,100607.00
2018-09-23T15:43:27.543Z,100619.00
2018-09-23T15:48:20.888Z,100626.00
2018-09-23T15:53:14.211Z,100646.00
2018-09-23T15:58:07.590Z,100659.00
2018-09-23T16:03:00.977Z,100666.00
2018-09-23T16:07:54.369Z,100688.00
2018-09-23T16:12:47.515Z,100734.00
2018-09-23T16:17:40.817Z,100750.00
2018-09-23T16:22:34.085Z,100766.00
2018-09-23T16:27:27.390Z,100774.00
2018-09-23T16:32:20.685Z,100799.00
2018-09-23T16:37:14.033Z,100820.00
2018-09-23T16:42:07.371Z,100840.00
2018-09-23T16:47:00.636Z,100896.00
2018-09-23T16:51:53.911Z,100901.00
2018-09-23T16:56:48.082Z,100939.00
2018-09-23T17:01:41.395Z,100966.00
2018-09-23T17:06:34.717Z,100986.00
2018-09-23T17:11:28.023Z,101010.00
2018-09-23T17:16:21.314Z,101030.00
2018-09-23T17:21:14.539Z,101029.00
2018-09-23T17:26:07.821Z,101042.00
2018-09-23T17:31:01.089Z,101063.00
2018-09-23T17:35:54.307Z,101092.00
2018-09-23T17:40:47.578Z,101113.00
2018-09-23T17:45:40.844Z,101128.00
2018-09-23T17:50:34.091Z,101140.00
2018-09-23T17:55:27.420Z,101148.00
2018-09-23T18:00:20.695Z,101177.00
2018-09-23T18:05:14.028Z,101212.00
2018-09-23T18:10:07.360Z,101227.00
2018-09-23T18:15:00.649Z,101250.00
2018-09-23T18:19:53.886Z,101275.00
2018-09-23T18:24:47.192Z,101298.00
2018-09-23T18:29:40.425Z,101313.00
2018-09-23T18:34:33.709Z,101320.00
2018-09-23T18:39:26.944Z,101332.00
2018-09-23T18:44:20.205Z,101346.00
2018-09-23T18:49:13.663Z,101360.00
2018-09-23T18:54:12.726Z,101379.00
2018-09-23T18:59:06.068Z,101387.00
2018-09-23T19:03:59.444Z,101401.00
2018-09-23T19:08:52.852Z,101399.00
2018-09-23T19:13:51.891Z,101418.00
2018-09-23T19:18:45.273Z,101442.00
2018-09-23T19:23:39.514Z,101461.00
2018-09-23T19:28:32.843Z,101473.00
2018-09-23T19:33:26.324Z,101482.00
2018-09-23T19:38:19.628Z,101507.00
2018-09-23T19:43:12.931Z,101512.00
2018-09-23T19:48:06.256Z,101535.00
2018-09-23T19:52:59.574Z,101540.00
2018-09-23T19:57:59.534Z,101558.00
2018-09-23T20:02:52.909Z,101573.00
2018-09-23T20:07:46.239Z,101587.00
2018-09-23T20:12:39.530Z,101592.00
2018-09-23T20:17:32.902Z,101594.00
2018-09-23T20:22:26.300Z,101606.00
2018-09-23T20:27:19.653Z,101625.00
2018-09-23T20:32:13.037Z,101635.00
2018-09-23T20:37:06.345Z,101643.00
2018-09-23T20:41:59.593Z,101663.00
2018-09-23T20:46:52.898Z,101672.00
2018-09-23T20:51:46.189Z,101703.00
2018-09-23T20:56:39.500Z,101710.00
2018-09-23T21:01:32.785Z,101719.00
2018-09-23T21:06:26.043Z,101734.00
2018-09-23T21:11:19.383Z,101739.00
2018-09-23T21:16:12.639Z,101747.00
2018-09-23T21:21:06.402Z,101760.00
2018-09-23T21:25:59.689Z,101760.00
2018-09-23T21:30:52.959Z,101769.00
2018-09-23T21:35:46.249Z,101785.00
2018-09-23T21:40:39.925Z,101797.00
2018-09-23T21:45:33.171Z,101803.00
2018-09-23T21:50:26.435Z,101813.00
2018-09-23T21:55:20.116Z,101833.00
2018-09-23T22:00:13.479Z,101853.00
2018-09-23T22:05:06.799Z,101857.00
2018-09-23T22:10:00.080Z,101864.00
2018-09-23T22:14:53.437Z,101884.00
2018-09-23T22:19:47.542Z,101889.00
2018-09-23T22:24:40.931Z,101896.00
2018-09-23T22:29:34.691Z,101916.00
2018-09-23T22:34:27.978Z,101923.00
2018-09-23T22:39:21.248Z,101936.00
2018-09-23T22:44:14.480Z,101947.00
2018-09-23T22:49:08.253Z,101960.00
2018-09-23T22:54:01.487Z,101965.00
2018-09-23T22:58:54.705Z,101972.00
2018-09-23T23:03:47.986Z,101982.00
2018-09-23T23:08:41.266Z,101989.00
2018-09-23T23:13:34.483Z,102001.00
2018-09-23T23:18:27.740Z,102009.00
2018-09-23T23:23:21.028Z,102020.00
2018-09-23T23:28:14.294Z,102025.00
2018-09-23T23:33:07.554Z,102042.00
2018-09-23T23:38:00.901Z,102057.00
2018-09-23T23:42:54.170Z,102064.00
2018-09-23T23:47:47.406Z,102072.00
2018-09-23T23:52:41.607Z,102083.00
2018-09-23T23:57:34.966Z,102098.00
